Time;durP1;ratioP1;P1;durP2;ratioP2;P2;SDS_P1;SDS_P2;PMS_P1;PMS_P2;Temp;Humidity;BMP_temperature;BMP_pressure;BME280_temperature;BME280_humidity;BME280_pressure;Samples;Min_cycle;Max_cycle;Signal;HPM_P1;HPM_P2
2023/08/31 00:00:31;;;;;;;5.65;1.63;;;;;;;24.55;53.85;98236.00;2081997;28;20388;-52
2023/08/31 00:01:34;;;;;;;3.78;2.17;;;;;;;24.55;53.36;98227.84;2082218;28;20156;-51
2023/08/31 00:02:37;;;;;;;5.63;1.55;;;;;;;24.61;53.41;98226.84;2079354;28;20088;-53
2023/08/31 00:03:39;;;;;;;4.28;1.30;;;;;;;24.62;52.99;98239.31;2082006;28;20041;-48
2023/08/31 00:04:43;;;;;;;8.52;2.33;;;;;;;24.60;53.31;98237.94;2080791;28;20438;-52
2023/08/31 00:05:45;;;;;;;4.93;1.33;;;;;;;24.62;53.56;98239.31;2079764;28;21741;-50
2023/08/31 00:06:46;;;;;;;3.03;1.38;;;;;;;24.66;53.29;98234.22;2079993;28;21265;-49
2023/08/31 00:07:48;;;;;;;6.55;1.65;;;;;;;24.71;53.04;98237.81;2076964;28;20052;-51
2023/08/31 00:08:49;;;;;;;3.38;1.30;;;;;;;24.72;53.26;98238.63;2083000;28;20049;-50
2023/08/31 00:09:52;;;;;;;2.08;1.35;;;;;;;24.67;53.35;98235.84;2081790;28;20066;-48
2023/08/31 00:10:59;;;;;;;6.45;1.80;;;;;;;24.65;53.57;98238.00;2082166;28;20095;-50
2023/08/31 00:12:02;;;;;;;3.78;1.30;;;;;;;24.65;53.59;98240.72;2079713;28;20053;-50
2023/08/31 00:13:06;;;;;;;1.85;1.23;;;;;;;24.66;53.08;98240.47;2079555;28;20672;-48
2023/08/31 00:14:08;;;;;;;4.82;1.58;;;;;;;24.67;52.95;98238.56;2082131;28;20055;-49
2023/08/31 00:15:10;;;;;;;3.00;1.67;;;;;;;24.69;53.31;98239.97;2082344;28;20053;-56
2023/08/31 00:16:14;;;;;;;4.28;1.58;;;;;;;24.71;52.75;98236.97;2081450;28;20057;-48
2023/08/31 00:17:16;;;;;;;6.22;1.73;;;;;;;24.68;52.82;98237.47;2078046;28;20049;-59
2023/08/31 00:18:17;;;;;;;6.30;2.13;;;;;;;24.63;53.27;98240.16;2081190;28;20124;-50
2023/08/31 00:19:19;;;;;;;6.88;1.90;;;;;;;24.55;53.51;98246.84;2079494;28;20076;-54
2023/08/31 00:20:21;;;;;;;3.88;1.73;;;;;;;24.55;53.48;98238.69;2084110;28;20845;-49
2023/08/31 00:21:23;;;;;;;3.50;1.33;;;;;;;24.55;53.38;98244.13;2074054;28;20049;-55
2023/08/31 00:22:25;;;;;;;6.55;1.10;;;;;;;24.50;53.60;98249.47;2078075;28;20456;-50
2023/08/31 00:23:26;;;;;;;3.75;2.17;;;;;;;24.38;53.79;98249.56;2078334;28;20048;-51
2023/08/31 00:24:31;;;;;;;4.60;1.80;;;;;;;24.31;54.14;98246.22;2081255;28;20045;-51
2023/08/31 00:25:32;;;;;;;7.97;2.55;;;;;;;24.38;54.24;98251.47;2081099;28;20041;-52
2023/08/31 00:26:34;;;;;;;7.20;2.55;;;;;;;24.39;53.90;98251.19;2083239;28;20108;-57
2023/08/31 00:27:38;;;;;;;6.45;1.90;;;;;;;24.42;53.73;98249.88;2081651;28;20515;-52
2023/08/31 00:28:39;;;;;;;5.32;1.80;;;;;;;24.44;53.76;98250.50;2081724;28;20064;-54
2023/08/31 00:29:43;;;;;;;7.35;2.28;;;;;;;24.37;54.03;98253.34;2079368;28;20507;-48
2023/08/31 00:30:44;;;;;;;6.40;1.75;;;;;;;24.35;54.04;98257.34;2079054;28;20049;-56
2023/08/31 00:31:51;;;;;;;5.43;2.05;;;;;;;24.40;53.74;98254.72;2081435;28;20155;-51
2023/08/31 00:32:53;;;;;;;6.03;1.92;;;;;;;24.38;53.78;98263.13;2082123;28;20054;-58
2023/08/31 00:33:55;;;;;;;4.35;1.88;;;;;;;24.37;54.17;98258.75;2070449;28;20103;-55
2023/08/31 00:34:56;;;;;;;8.85;2.17;;;;;;;24.37;53.86;98263.34;2095544;28;20058;-49
2023/08/31 00:36:01;;;;;;;3.38;1.33;;;;;;;24.35;53.74;98262.78;2094986;28;20449;-52
2023/08/31 00:37:02;;;;;;;5.38;1.70;;;;;;;24.38;54.02;98263.13;2081306;28;20048;-53
2023/08/31 00:38:04;;;;;;;4.43;1.70;;;;;;;24.31;54.38;98262.47;2080640;28;20057;-52
2023/08/31 00:39:08;;;;;;;9.68;2.53;;;;;;;24.15;54.24;98257.91;2082593;28;20045;-52
2023/08/31 00:40:13;;;;;;;8.98;1.80;;;;;;;24.20;53.76;98264.22;2080354;28;20117;-52
2023/08/31 00:41:15;;;;;;;5.90;1.83;;;;;;;24.36;53.80;98262.53;2081775;28;20045;-51
2023/08/31 00:42:18;;;;;;;5.72;1.85;;;;;;;24.49;53.22;98264.94;2079672;28;20049;-51
2023/08/31 00:43:20;;;;;;;7.20;1.63;;;;;;;24.46;53.35;98261.88;2081696;28;20045;-50
2023/08/31 00:44:22;;;;;;;7.15;1.30;;;;;;;24.24;54.17;98262.66;2083185;28;20052;-50
2023/08/31 00:45:23;;;;;;;5.78;2.28;;;;;;;24.22;54.05;98264.78;2081581;28;20454;-49
2023/08/31 00:46:27;;;;;;;4.25;1.75;;;;;;;24.21;53.94;98263.16;2081481;28;20527;-48
2023/08/31 00:47:28;;;;;;;4.40;1.63;;;;;;;24.28;53.65;98263.78;2081968;28;20044;-50
2023/08/31 00:48:30;;;;;;;5.80;2.03;;;;;;;24.38;53.65;98259.59;2081862;28;20049;-56
2023/08/31 00:49:31;;;;;;;5.18;1.60;;;;;;;24.45;53.79;98262.97;2081924;28;20123;-53
2023/08/31 00:50:33;;;;;;;7.03;1.90;;;;;;;24.50;53.51;98269.28;2080598;28;20076;-52
2023/08/31 00:51:36;;;;;;;7.75;1.95;;;;;;;24.47;53.71;98267.06;2082938;28;20071;-53
2023/08/31 00:52:37;;;;;;;6.95;2.10;;;;;;;24.43;53.04;98267.78;2081738;28;20071;-54
2023/08/31 00:53:39;;;;;;;8.32;2.10;;;;;;;24.43;53.64;98270.47;2076418;28;20803;-48
2023/08/31 00:54:42;;;;;;;2.85;1.50;;;;;;;24.35;53.40;98260.06;2079792;28;20514;-52
2023/08/31 00:55:45;;;;;;;5.35;2.50;;;;;;;24.35;53.60;98260.91;2083054;28;20048;-53
2023/08/31 00:56:51;;;;;;;8.23;1.80;;;;;;;24.44;53.55;98264.03;2081662;28;20049;-53
2023/08/31 00:57:55;;;;;;;5.20;2.17;;;;;;;24.55;53.59;98265.81;2072682;28;20049;-58
2023/08/31 00:58:56;;;;;;;7.18;2.08;;;;;;;24.59;53.43;98263.41;2080787;28;20059;-51
2023/08/31 00:59:58;;;;;;;3.47;1.30;;;;;;;24.55;53.00;98263.09;2082718;28;20499;-54
2023/08/31 01:01:07;;;;;;;6.75;1.40;;;;;;;24.40;53.42;98269.09;2084140;28;20053;-51
2023/08/31 01:02:14;;;;;;;5.65;2.10;;;;;;;24.27;54.02;98270.28;2081667;28;20114;-49
2023/08/31 01:03:29;;;;;;;8.32;1.95;;;;;;;24.25;53.96;98261.56;2081975;28;20059;-49
2023/08/31 01:04:39;;;;;;;4.35;2.25;;;;;;;24.12;53.98;98264.63;2082928;28;20069;-52
2023/08/31 01:05:50;;;;;;;5.65;1.38;;;;;;;24.05;54.37;98266.72;2084482;28;20049;-52
2023/08/31 01:06:57;;;;;;;9.60;2.72;;;;;;;24.03;54.37;98271.56;2080606;28;20049;-53
2023/08/31 01:08:22;;;;;;;7.05;2.35;;;;;;;23.98;54.70;98275.00;2083501;28;20095;-52
2023/08/31 01:09:32;;;;;;;3.30;1.35;;;;;;;24.08;54.08;98263.50;2081992;28;20052;-49
2023/08/31 01:10:45;;;;;;;8.23;2.33;;;;;;;24.17;53.62;98270.13;2080793;28;20518;-54
2023/08/31 01:11:56;;;;;;;12.65;1.60;;;;;;;24.14;54.07;98265.22;2079506;28;21017;-52
2023/08/31 01:13:04;;;;;;;5.68;1.55;;;;;;;24.12;54.15;98278.19;2082717;28;20044;-51
2023/08/31 01:14:11;;;;;;;8.02;2.35;;;;;;;23.84;54.50;98279.91;2082526;28;20041;-50
2023/08/31 01:15:16;;;;;;;12.88;3.28;;;;;;;23.56;55.83;98279.97;2082050;28;20053;-48
2023/08/31 01:16:17;;;;;;;9.55;2.42;;;;;;;23.51;56.24;98279.88;2080899;28;20852;-50
2023/08/31 01:17:23;;;;;;;5.22;1.88;;;;;;;23.59;55.86;98280.28;2082322;28;20041;-48
2023/08/31 01:18:26;;;;;;;8.38;2.22;;;;;;;23.69;55.98;98279.66;2080158;28;20056;-48
2023/08/31 01:19:44;;;;;;;4.90;2.58;;;;;;;23.78;55.09;98285.50;2082403;28;20645;-49
2023/08/31 01:20:51;;;;;;;6.88;3.50;;;;;;;23.76;55.48;98283.03;2082101;28;20052;-57
2023/08/31 01:21:56;;;;;;;6.07;2.08;;;;;;;23.87;54.92;98284.03;2080088;28;20060;-55
2023/08/31 01:23:03;;;;;;;8.57;2.00;;;;;;;23.90;55.13;98288.13;2082842;28;20048;-53
2023/08/31 01:24:07;;;;;;;7.68;2.47;;;;;;;23.84;55.01;98284.53;2078323;28;20075;-49
2023/08/31 01:25:09;;;;;;;10.73;2.58;;;;;;;23.79;54.65;98279.88;2081645;28;20132;-49
2023/08/31 01:26:11;;;;;;;4.47;2.35;;;;;;;23.73;55.02;98285.41;2081230;28;20103;-49
2023/08/31 01:27:12;;;;;;;7.00;2.20;;;;;;;23.67;55.15;98284.47;2080553;28;20052;-51
2023/08/31 01:28:14;;;;;;;10.18;2.50;;;;;;;23.67;55.18;98283.66;2080396;28;20392;-49
2023/08/31 01:29:15;;;;;;;4.65;2.67;;;;;;;23.63;55.31;98284.16;2082190;28;20486;-50
2023/08/31 01:30:17;;;;;;;5.03;2.13;;;;;;;23.61;55.69;98285.47;2083116;28;20060;-49
2023/08/31 01:31:18;;;;;;;7.57;2.72;;;;;;;23.60;55.59;98287.38;2082878;28;20127;-51
2023/08/31 01:32:20;;;;;;;7.32;2.38;;;;;;;23.63;55.49;98288.75;2080166;28;20053;-49
2023/08/31 01:35:19;;;;;;;7.65;1.90;;;;;;;23.34;56.53;98294.19;2079220;28;20133;-49
2023/08/31 01:36:26;;;;;;;8.32;2.55;;;;;;;23.44;56.25;98284.63;2079630;28;20140;-49
2023/08/31 01:37:31;;;;;;;7.88;2.10;;;;;;;23.46;55.63;98291.44;2082186;28;20050;-50
2023/08/31 01:38:36;;;;;;;7.28;2.58;;;;;;;23.32;56.38;98285.50;2079488;28;20130;-52
2023/08/31 01:39:43;;;;;;;7.20;1.70;;;;;;;23.36;56.22;98293.97;2079672;28;20136;-47
2023/08/31 01:40:54;;;;;;;6.47;1.77;;;;;;;23.32;56.49;98287.41;2081428;28;20140;-52
2023/08/31 01:42:00;;;;;;;6.38;2.58;;;;;;;23.37;56.35;98291.03;2080917;28;20092;-51
2023/08/31 01:43:03;;;;;;;4.47;2.22;;;;;;;23.47;56.04;98292.25;2081656;28;20074;-49
2023/08/31 01:44:05;;;;;;;5.32;2.15;;;;;;;23.48;55.64;98297.41;2079196;28;20195;-47
2023/08/31 01:45:09;;;;;;;6.15;2.15;;;;;;;23.51;55.92;98294.22;2081685;28;20045;-48
2023/08/31 01:46:10;;;;;;;7.13;2.78;;;;;;;23.50;56.06;98292.59;2080463;28;20053;-54
2023/08/31 01:47:14;;;;;;;5.25;1.52;;;;;;;23.50;56.24;98299.91;2078535;28;20135;-48
2023/08/31 01:48:15;;;;;;;6.57;1.90;;;;;;;23.45;56.10;98300.63;2080205;28;20037;-51
2023/08/31 01:49:17;;;;;;;7.15;1.92;;;;;;;23.42;55.83;98296.50;2082167;28;20080;-48
2023/08/31 01:50:18;;;;;;;5.60;1.95;;;;;;;23.41;56.30;98294.06;2080996;28;20041;-48
2023/08/31 01:51:20;;;;;;;7.43;2.05;;;;;;;23.42;56.06;98293.81;2080589;28;20045;-49
2023/08/31 01:52:21;;;;;;;6.18;1.25;;;;;;;23.42;56.10;98291.09;2080442;28;20048;-48
2023/08/31 01:53:23;;;;;;;2.85;1.75;;;;;;;23.45;56.00;98297.09;2080753;28;20586;-50
2023/08/31 01:54:24;;;;;;;8.35;2.22;;;;;;;23.40;56.18;98293.25;2080276;28;20044;-50
2023/08/31 01:55:28;;;;;;;10.40;2.35;;;;;;;23.38;55.88;98295.38;2080390;28;20050;-52
2023/08/31 01:56:29;;;;;;;5.18;2.17;;;;;;;23.37;56.13;98292.88;2078347;28;20045;-52
2023/08/31 01:57:30;;;;;;;10.43;2.80;;;;;;;23.36;55.99;98297.47;2079915;28;20160;-51
2023/08/31 01:58:32;;;;;;;6.53;1.63;;;;;;;23.37;56.29;98288.31;2079777;28;20132;-53
2023/08/31 01:59:34;;;;;;;8.65;2.08;;;;;;;23.31;56.42;98293.88;2082014;28;20717;-50
2023/08/31 02:00:38;;;;;;;7.70;2.88;;;;;;;23.23;56.69;98286.13;2079680;28;20075;-55
2023/08/31 02:01:39;;;;;;;5.53;2.03;;;;;;;23.21;56.84;98297.22;2080906;28;20424;-57
2023/08/31 02:02:41;;;;;;;9.63;2.10;;;;;;;23.22;56.56;98298.03;2078092;28;20083;-53
2023/08/31 02:03:42;;;;;;;8.88;2.05;;;;;;;23.12;56.90;98301.34;2081699;28;20114;-54
2023/08/31 02:04:43;;;;;;;15.00;2.38;;;;;;;23.08;56.98;98306.44;2080353;28;20107;-50
2023/08/31 02:05:45;;;;;;;7.68;2.33;;;;;;;23.07;56.83;98304.78;2081910;28;20083;-48
2023/08/31 02:06:46;;;;;;;7.72;2.00;;;;;;;23.08;56.82;98302.91;2078882;28;20048;-52
2023/08/31 02:07:48;;;;;;;10.77;1.95;;;;;;;23.05;57.44;98311.50;2082028;28;20112;-48
2023/08/31 02:08:49;;;;;;;7.05;2.38;;;;;;;23.06;56.74;98307.72;2081758;28;20132;-53
2023/08/31 02:09:51;;;;;;;4.68;2.70;;;;;;;23.08;57.30;98303.72;2080943;28;20052;-50
2023/08/31 02:10:54;;;;;;;6.47;2.15;;;;;;;23.08;56.96;98308.31;2079828;28;20056;-52
2023/08/31 02:11:56;;;;;;;6.15;3.25;;;;;;;23.08;57.02;98305.63;2080448;28;20171;-49
2023/08/31 02:12:57;;;;;;;6.55;2.13;;;;;;;23.08;56.68;98305.63;2079598;28;20045;-56
2023/08/31 02:13:59;;;;;;;6.07;2.33;;;;;;;23.06;56.77;98303.13;2080983;28;20673;-53
2023/08/31 02:15:00;;;;;;;8.23;2.95;;;;;;;23.10;56.74;98304.31;2082220;28;20063;-50
2023/08/31 02:16:01;;;;;;;5.63;2.45;;;;;;;23.12;56.96;98313.00;2080302;28;20071;-50
2023/08/31 02:17:02;;;;;;;6.72;2.00;;;;;;;23.14;56.59;98312.75;2080347;28;20045;-55
2023/08/31 02:18:05;;;;;;;7.47;2.30;;;;;;;23.14;56.61;98313.56;2079136;28;20081;-48
2023/08/31 02:19:06;;;;;;;7.15;1.60;;;;;;;23.08;56.99;98309.13;2080004;28;20061;-54
2023/08/31 02:20:09;;;;;;;6.45;1.83;;;;;;;23.09;56.87;98310.75;2071590;28;20175;-53
2023/08/31 02:21:10;;;;;;;9.07;2.42;;;;;;;23.15;57.03;98314.38;2079502;28;20400;-53
2023/08/31 02:22:12;;;;;;;6.53;2.22;;;;;;;23.18;56.54;98313.94;2077444;28;20565;-49
2023/08/31 02:23:13;;;;;;;9.38;2.15;;;;;;;23.21;56.59;98318.88;2080107;28;20622;-53
2023/08/31 02:24:15;;;;;;;9.60;1.92;;;;;;;23.22;56.37;98315.09;2080236;28;20782;-48
2023/08/31 02:25:16;;;;;;;5.82;1.98;;;;;;;23.19;56.72;98323.69;2081330;28;20053;-49
2023/08/31 02:26:20;;;;;;;6.30;1.88;;;;;;;23.23;56.59;98313.19;2082066;28;20052;-50
2023/08/31 02:27:21;;;;;;;3.88;1.52;;;;;;;23.25;56.17;98317.31;2080068;28;20107;-50
2023/08/31 02:28:23;;;;;;;7.15;3.40;;;;;;;23.20;56.60;98314.50;2080653;28;20054;-49
2023/08/31 02:29:24;;;;;;;3.58;2.17;;;;;;;23.15;56.85;98317.94;2079487;28;20624;-50
2023/08/31 02:30:26;;;;;;;10.57;2.30;;;;;;;23.13;57.05;98311.94;2079112;28;20048;-48
2023/08/31 02:31:27;;;;;;;7.13;2.13;;;;;;;23.16;57.03;98314.16;2078964;28;20058;-51
2023/08/31 02:32:29;;;;;;;4.22;1.83;;;;;;;23.18;56.28;98314.75;2080041;28;20083;-52
2023/08/31 02:33:30;;;;;;;5.70;1.98;;;;;;;23.18;56.60;98311.22;2080539;28;20060;-50
2023/08/31 02:34:32;;;;;;;8.75;1.88;;;;;;;23.17;56.67;98314.97;2079824;28;20069;-52
2023/08/31 02:35:33;;;;;;;7.75;1.98;;;;;;;23.14;56.67;98315.47;2081375;28;20867;-52
2023/08/31 02:36:35;;;;;;;5.82;2.22;;;;;;;23.18;56.45;98322.88;2080521;28;20132;-51
2023/08/31 02:37:36;;;;;;;8.48;3.63;;;;;;;23.13;56.67;98320.06;2078840;28;20049;-51
2023/08/31 02:38:38;;;;;;;8.02;3.20;;;;;;;23.06;56.78;98313.13;2079177;28;20045;-52
2023/08/31 02:39:40;;;;;;;10.82;2.95;;;;;;;23.02;56.92;98307.41;2079319;28;20060;-55
2023/08/31 02:40:42;;;;;;;11.73;2.97;;;;;;;23.04;57.13;98315.25;2078025;28;20327;-53
2023/08/31 02:41:44;;;;;;;9.43;2.47;;;;;;;22.93;57.03;98309.63;2080525;28;20037;-51
2023/08/31 02:42:46;;;;;;;5.25;2.28;;;;;;;22.96;57.12;98309.19;2081806;28;20113;-51
2023/08/31 02:43:50;;;;;;;9.65;2.47;;;;;;;23.04;56.98;98304.44;2081819;28;20091;-51
2023/08/31 02:44:54;;;;;;;5.72;1.85;;;;;;;23.07;56.84;98310.22;2079398;28;20055;-54
2023/08/31 02:46:00;;;;;;;6.82;1.98;;;;;;;23.01;57.12;98305.72;2078153;28;20909;-54
2023/08/31 02:47:02;;;;;;;9.13;2.55;;;;;;;22.87;57.40;98309.75;2079597;28;20144;-49
2023/08/31 02:48:03;;;;;;;6.50;1.90;;;;;;;22.93;57.43;98314.22;2077895;28;20064;-53
2023/08/31 02:49:05;;;;;;;7.22;2.40;;;;;;;22.93;57.32;98301.50;2079754;28;20049;-53
2023/08/31 02:50:07;;;;;;;8.95;2.28;;;;;;;22.97;57.45;98304.59;2081783;28;20052;-49
2023/08/31 02:51:09;;;;;;;11.20;2.88;;;;;;;22.84;57.81;98311.03;2076483;28;20607;-48
2023/08/31 02:52:10;;;;;;;10.27;2.50;;;;;;;22.66;58.09;98312.03;2081191;28;20890;-51
2023/08/31 02:53:12;;;;;;;13.15;3.15;;;;;;;22.65;58.22;98312.25;2079500;28;20829;-51
2023/08/31 02:54:13;;;;;;;4.60;2.60;;;;;;;22.80;57.58;98307.19;2080289;28;20052;-48
2023/08/31 02:55:15;;;;;;;10.88;2.90;;;;;;;22.84;57.61;98310.22;2081175;28;20053;-48
2023/08/31 02:56:16;;;;;;;10.73;2.58;;;;;;;22.91;57.42;98310.94;2079156;28;20878;-52
2023/08/31 02:57:19;;;;;;;7.50;2.55;;;;;;;22.73;58.10;98306.47;2080375;28;20050;-52
2023/08/31 02:58:21;;;;;;;10.82;2.50;;;;;;;22.84;57.64;98318.34;2078331;28;20129;-48
2023/08/31 02:59:22;;;;;;;4.50;1.63;;;;;;;22.87;57.67;98310.59;2078327;28;20048;-48
2023/08/31 03:00:24;;;;;;;6.63;2.13;;;;;;;22.86;57.62;98310.81;2081645;28;20057;-52
2023/08/31 03:01:25;;;;;;;7.75;2.50;;;;;;;22.83;57.96;98303.19;2080101;28;20045;-48
2023/08/31 03:02:27;;;;;;;14.48;3.40;;;;;;;22.86;57.35;98314.34;2080275;28;20080;-49
2023/08/31 03:03:28;;;;;;;4.40;2.38;;;;;;;22.79;57.67;98315.53;2079919;28;20813;-49
2023/08/31 03:04:30;;;;;;;10.65;2.42;;;;;;;22.83;57.54;98312.13;2080683;28;20049;-49
2023/08/31 03:05:31;;;;;;;13.20;3.45;;;;;;;22.59;58.55;98311.31;2080540;28;20840;-50
2023/08/31 03:06:33;;;;;;;11.02;2.78;;;;;;;22.58;58.34;98314.28;2078535;28;20056;-48
2023/08/31 03:07:35;;;;;;;9.40;3.53;;;;;;;22.53;58.88;98309.59;2081423;28;20076;-52
2023/08/31 03:08:39;;;;;;;3.72;2.10;;;;;;;22.62;58.45;98310.88;2077953;28;20102;-47
2023/08/31 03:09:40;;;;;;;5.43;2.00;;;;;;;22.74;57.95;98316.25;2081691;28;20141;-53
2023/08/31 03:10:42;;;;;;;9.88;2.10;;;;;;;22.76;58.00;98314.13;2081354;28;20426;-49
2023/08/31 03:11:43;;;;;;;5.28;2.63;;;;;;;22.72;57.84;98315.66;2080069;28;20530;-51
2023/08/31 03:12:47;;;;;;;7.40;2.13;;;;;;;22.60;58.46;98310.28;2079725;28;20144;-52
2023/08/31 03:13:48;;;;;;;7.68;2.05;;;;;;;22.63;58.03;98311.69;2080114;28;20053;-50
2023/08/31 03:14:50;;;;;;;12.63;2.17;;;;;;;22.72;57.99;98311.06;2078307;28;20401;-52
2023/08/31 03:15:51;;;;;;;8.75;2.30;;;;;;;22.66;58.10;98308.53;2078022;28;20176;-51
2023/08/31 03:16:53;;;;;;;6.30;2.80;;;;;;;22.63;58.38;98309.81;2079086;28;20187;-51
2023/08/31 03:17:54;;;;;;;7.38;2.85;;;;;;;22.70;57.93;98310.47;2078331;28;20061;-48
2023/08/31 03:18:56;;;;;;;9.55;2.22;;;;;;;22.80;57.40;98314.47;2078404;28;20122;-51
2023/08/31 03:19:57;;;;;;;9.07;2.25;;;;;;;22.80;57.82;98304.47;2078322;28;20069;-52
2023/08/31 03:20:59;;;;;;;18.02;3.40;;;;;;;22.84;57.27;98313.75;2077967;28;20059;-52
2023/08/31 03:22:00;;;;;;;13.10;2.85;;;;;;;22.72;58.04;98307.56;2079998;28;20055;-50
2023/08/31 03:23:02;;;;;;;6.25;2.75;;;;;;;22.73;57.87;98306.47;2079214;28;20445;-49
2023/08/31 03:24:04;;;;;;;7.97;2.42;;;;;;;22.69;57.90;98310.75;2079190;28;20415;-51
2023/08/31 03:25:05;;;;;;;9.13;1.80;;;;;;;22.71;58.07;98312.16;2083821;28;20086;-49
2023/08/31 03:26:10;;;;;;;6.28;2.03;;;;;;;22.78;57.67;98317.41;2078789;28;20241;-48
2023/08/31 03:27:11;;;;;;;12.45;2.72;;;;;;;22.80;57.40;98312.59;2076801;28;20052;-50
2023/08/31 03:28:14;;;;;;;7.32;2.33;;;;;;;22.79;57.82;98312.81;2081477;28;20059;-49
2023/08/31 03:29:15;;;;;;;6.47;2.33;;;;;;;22.82;57.76;98315.06;2078105;28;20494;-51
2023/08/31 03:30:17;;;;;;;3.35;1.80;;;;;;;22.85;57.51;98310.00;2080662;28;20049;-51
2023/08/31 03:31:18;;;;;;;16.98;3.65;;;;;;;22.85;57.32;98312.72;2080808;28;20052;-50
2023/08/31 03:32:20;;;;;;;8.65;2.38;;;;;;;22.79;57.55;98310.13;2077840;28;20053;-50
2023/08/31 03:33:21;;;;;;;11.68;3.53;;;;;;;22.69;58.00;98316.16;2079311;28;20882;-51
2023/08/31 03:34:23;;;;;;;7.85;3.08;;;;;;;22.80;58.02;98315.31;2079967;28;20147;-49
2023/08/31 03:35:26;;;;;;;3.65;1.80;;;;;;;22.86;57.61;98322.44;2077213;28;20188;-49
2023/08/31 03:36:28;;;;;;;7.75;3.08;;;;;;;22.68;58.22;98311.81;2079200;28;20055;-50
2023/08/31 03:37:29;;;;;;;5.40;2.22;;;;;;;22.70;57.61;98315.88;2077645;28;20037;-48
2023/08/31 03:38:31;;;;;;;11.20;2.42;;;;;;;22.61;58.30;98316.50;2079221;28;20050;-50
2023/08/31 03:39:32;;;;;;;11.10;2.90;;;;;;;22.52;58.09;98314.16;2078471;28;20045;-53
2023/08/31 03:40:35;;;;;;;7.28;2.95;;;;;;;22.62;58.14;98312.75;2078632;28;20863;-52
2023/08/31 03:41:36;;;;;;;7.03;3.03;;;;;;;22.74;57.66;98313.56;2080874;28;20045;-51
2023/08/31 03:42:37;;;;;;;10.65;2.22;;;;;;;22.75;58.07;98315.19;2082035;28;20045;-50
2023/08/31 03:43:40;;;;;;;6.95;2.47;;;;;;;22.73;57.97;98320.00;2076807;28;20062;-52
2023/08/31 03:44:41;;;;;;;14.63;2.53;;;;;;;22.57;58.27;98316.19;2076802;28;20078;-48
2023/08/31 03:45:43;;;;;;;11.20;2.47;;;;;;;22.43;58.80;98320.19;2080329;28;20041;-51
2023/08/31 03:46:44;;;;;;;5.70;2.65;;;;;;;22.34;58.89;98314.28;2077779;28;20045;-50
2023/08/31 03:47:46;;;;;;;11.27;2.25;;;;;;;22.38;58.82;98318.19;2080801;28;20598;-52
2023/08/31 03:48:47;;;;;;;7.75;3.15;;;;;;;22.48;58.90;98322.97;2079917;28;20049;-52
2023/08/31 03:49:48;;;;;;;6.78;1.90;;;;;;;22.53;58.11;98320.38;2079973;28;20057;-56
2023/08/31 03:50:51;;;;;;;5.85;2.67;;;;;;;22.62;58.36;98320.84;2079652;28;20048;-52
2023/08/31 03:51:53;;;;;;;8.77;2.65;;;;;;;22.64;57.78;98318.75;2078443;28;21991;-52
2023/08/31 03:52:54;;;;;;;9.73;2.65;;;;;;;22.27;59.27;98327.13;2068648;28;20042;-52
2023/08/31 03:53:56;;;;;;;10.23;3.20;;;;;;;22.26;59.11;98331.69;2079292;28;20111;-54
2023/08/31 03:54:57;;;;;;;8.80;2.45;;;;;;;22.36;59.22;98324.88;2076827;28;20106;-53
2023/08/31 03:55:59;;;;;;;5.22;2.72;;;;;;;22.13;59.76;98331.06;2079545;28;20052;-49
2023/08/31 03:57:00;;;;;;;11.95;4.07;;;;;;;22.15;60.13;98331.63;2077200;28;20049;-56
2023/08/31 03:58:02;;;;;;;7.72;2.38;;;;;;;22.24;59.34;98330.28;2077814;28;20502;-53
2023/08/31 03:59:05;;;;;;;10.63;2.58;;;;;;;22.44;59.05;98332.63;2078843;28;20576;-54
2023/08/31 04:00:10;;;;;;;13.25;2.80;;;;;;;22.56;58.27;98327.22;2078485;28;20114;-52
2023/08/31 04:01:10;;;;;;;12.35;2.47;;;;;;;22.38;59.13;98331.69;2079633;28;20604;-52
2023/08/31 04:02:12;;;;;;;13.57;4.45;;;;;;;22.37;59.05;98338.16;2078215;28;20049;-51
2023/08/31 04:03:13;;;;;;;10.82;2.60;;;;;;;22.28;59.62;98331.44;2079791;28;20850;-50
2023/08/31 04:04:15;;;;;;;9.60;2.78;;;;;;;22.21;59.74;98336.16;2077099;28;20057;-53
2023/08/31 04:05:16;;;;;;;11.80;3.25;;;;;;;22.32;59.46;98338.03;2078539;28;20060;-54
2023/08/31 04:06:18;;;;;;;14.60;2.75;;;;;;;22.16;59.79;98336.81;2078719;28;20056;-53
2023/08/31 04:07:18;;;;;;;7.13;2.92;;;;;;;22.28;59.65;98334.16;2079178;28;20041;-56
2023/08/31 04:08:19;;;;;;;15.60;4.53;;;;;;;22.10;60.31;98335.06;2079291;28;20044;-54
2023/08/31 04:09:21;;;;;;;11.52;4.43;;;;;;;22.13;60.34;98336.47;2077258;28;20246;-54
2023/08/31 04:10:23;;;;;;;5.57;2.25;;;;;;;22.08;60.17;98335.28;2079990;28;20048;-52
2023/08/31 04:11:26;;;;;;;8.07;2.45;;;;;;;22.07;60.43;98338.22;2078026;28;20103;-54
2023/08/31 04:12:29;;;;;;;9.85;2.72;;;;;;;21.90;60.84;98339.94;2080252;28;20052;-51
2023/08/31 04:13:31;;;;;;;6.53;2.50;;;;;;;22.07;60.33;98341.75;2077259;28;20045;-53
2023/08/31 04:14:33;;;;;;;5.45;2.63;;;;;;;22.30;59.51;98342.84;2079669;28;20041;-51
2023/08/31 04:15:34;;;;;;;11.40;2.50;;;;;;;22.42;59.14;98342.84;2077707;28;20431;-52
2023/08/31 04:16:36;;;;;;;8.38;2.80;;;;;;;22.42;58.78;98351.75;2076299;28;20045;-56
2023/08/31 04:17:37;;;;;;;6.18;2.92;;;;;;;22.35;59.63;98350.25;2077384;28;20037;-54
2023/08/31 04:18:39;;;;;;;7.20;2.35;;;;;;;22.24;59.62;98351.91;2079901;28;20144;-52
2023/08/31 04:19:40;;;;;;;16.77;3.30;;;;;;;22.15;59.98;98350.53;2076668;28;20045;-55
2023/08/31 04:20:49;;;;;;;7.82;2.70;;;;;;;21.95;60.62;98356.28;2077499;28;20137;-54
2023/08/31 04:21:50;;;;;;;7.90;2.38;;;;;;;21.84;61.01;98360.59;2078983;28;20049;-51
2023/08/31 04:22:52;;;;;;;8.40;2.78;;;;;;;21.67;61.49;98360.44;2077474;28;20107;-50
2023/08/31 04:23:53;;;;;;;6.95;1.95;;;;;;;21.78;60.95;98364.22;2077496;28;20541;-53
2023/08/31 04:24:55;;;;;;;13.75;2.95;;;;;;;21.78;61.04;98369.63;2079195;28;20053;-50
2023/08/31 04:25:57;;;;;;;5.45;2.03;;;;;;;21.81;60.99;98367.31;2078872;28;20073;-50
2023/08/31 04:26:59;;;;;;;10.82;2.30;;;;;;;21.51;62.21;98364.63;2077390;28;20501;-54
2023/08/31 04:28:00;;;;;;;10.55;2.72;;;;;;;21.74;60.81;98371.97;2077898;28;20053;-55
2023/08/31 04:29:03;;;;;;;10.50;3.10;;;;;;;21.87;60.92;98365.56;2078073;28;20063;-54
2023/08/31 04:30:07;;;;;;;9.82;3.17;;;;;;;21.64;61.47;98377.09;2079056;28;20046;-56
2023/08/31 04:31:09;;;;;;;10.18;3.03;;;;;;;21.76;61.08;98369.06;2077943;28;21009;-50
2023/08/31 04:32:09;;;;;;;10.70;3.03;;;;;;;21.53;61.95;98375.16;2078606;28;20057;-52
2023/08/31 04:33:11;;;;;;;9.50;2.85;;;;;;;21.31;62.58;98372.13;2076112;28;20057;-55
2023/08/31 04:34:12;;;;;;;15.05;2.90;;;;;;;21.24;62.93;98371.41;2078675;28;20063;-51
2023/08/31 04:35:14;;;;;;;6.40;3.33;;;;;;;21.33;62.93;98375.41;2078568;28;22142;-49
2023/08/31 04:36:15;;;;;;;9.27;3.10;;;;;;;21.15;63.04;98379.78;2080551;28;20435;-52
2023/08/31 04:37:15;;;;;;;8.75;3.25;;;;;;;21.03;63.55;98380.75;2076680;28;20056;-52
2023/08/31 04:38:17;;;;;;;;;;;;;;;20.86;64.32;98373.28;2081140;28;20930;-50
2023/08/31 04:39:18;;;;;;;9.25;2.78;;;;;;;20.86;64.11;98377.84;2078859;28;20015;-51
2023/08/31 04:40:19;;;;;;;6.03;3.65;;;;;;;20.85;64.44;98374.31;2078182;28;20061;-50
2023/08/31 04:41:20;;;;;;;;;;;;;;;20.88;63.93;98373.88;2079370;28;20050;-49
2023/08/31 04:42:21;;;;;;;;;;;;;;;20.80;64.55;98381.44;2077576;28;19965;-50
2023/08/31 04:43:23;;;;;;;8.90;2.63;;;;;;;21.17;63.48;98377.69;2078723;28;19925;-49
2023/08/31 04:44:24;;;;;;;10.52;2.75;;;;;;;21.12;63.19;98380.25;2082068;28;20057;-49
2023/08/31 04:45:27;;;;;;;;;;;;;;;21.04;63.63;98385.94;2080307;28;20049;-49
2023/08/31 04:46:28;;;;;;;8.57;2.40;;;;;;;21.44;62.31;98381.94;2079865;28;19928;-52
2023/08/31 04:47:29;;;;;;;5.95;3.83;;;;;;;21.70;61.06;98376.16;2077733;28;20040;-49
2023/08/31 04:48:31;;;;;;;10.65;3.92;;;;;;;21.61;61.68;98381.06;2080369;28;20064;-49
2023/08/31 04:49:31;;;;;;;11.02;2.67;;;;;;;21.41;62.52;98378.66;2077770;28;20838;-51
2023/08/31 04:50:33;;;;;;;;;;;;;;;21.45;62.45;98373.63;2080341;28;20045;-49
2023/08/31 04:51:35;;;;;;;;;;;;;;;21.46;62.26;98385.25;2078774;28;19951;-50
2023/08/31 04:52:36;;;;;;;10.13;2.80;;;;;;;21.39;62.33;98374.53;2079363;28;19970;-52
2023/08/31 04:53:37;;;;;;;9.25;2.90;;;;;;;21.31;62.57;98385.59;2078792;28;20084;-51
2023/08/31 04:54:39;;;;;;;14.98;4.28;;;;;;;21.39;61.97;98385.31;2080004;28;20049;-50
2023/08/31 04:55:40;;;;;;;8.35;2.58;;;;;;;21.26;62.94;98382.78;2079930;28;20131;-50
2023/08/31 04:56:42;;;;;;;11.05;3.30;;;;;;;21.05;63.71;98390.28;2078434;28;20037;-49